Time;durP1;ratioP1;P1;durP2;ratioP2;P2;SDS_P1;SDS_P2;PMS_P1;PMS_P2;Temp;Humidity;BMP_temperature;BMP_pressure;BME280_temperature;BME280_humidity;BME280_pressure;Samples;Min_cycle;Max_cycle;Signal;HPM_P1;HPM_P2
2021/05/18 00:00:59;;;;;;;3.92;2.40;;;;;;;;;;3616414;39;20039;-74
2021/05/18 00:03:25;;;;;;;6.93;2.38;;;;;;;;;;3616508;39;20035;-74
2021/05/18 00:05:54;;;;;;;5.82;2.55;;;;;;;;;;3617120;39;20111;-74
2021/05/18 00:08:22;;;;;;;5.55;2.80;;;;;;;;;;3616643;39;20027;-74
2021/05/18 00:13:37;;;;;;;4.13;2.42;;;;;;;;;;3616828;39;20023;-74
2021/05/18 00:16:04;;;;;;;4.35;2.47;;;;;;;;;;3617241;39;20355;-74
2021/05/18 00:18:30;;;;;;;5.90;2.55;;;;;;;;;;3616842;39;20023;-74
2021/05/18 00:20:56;;;;;;;4.85;2.50;;;;;;;;;;3616927;39;20037;-74
2021/05/18 00:23:22;;;;;;;4.70;2.70;;;;;;;;;;3617182;39;20040;-74
2021/05/18 00:25:47;;;;;;;7.97;2.83;;;;;;;;;;3617043;39;20116;-74
2021/05/18 00:28:13;;;;;;;6.57;2.58;;;;;;;;;;3607606;39;20042;-74
2021/05/18 00:30:40;;;;;;;6.90;2.50;;;;;;;;;;3617248;39;20299;-74
2021/05/18 00:33:18;;;;;;;6.22;2.63;;;;;;;;;;3617046;39;20034;-74
2021/05/18 00:35:44;;;;;;;4.65;2.03;;;;;;;;;;3616108;39;20079;-74
2021/05/18 00:38:11;;;;;;;7.70;3.13;;;;;;;;;;3616485;39;20043;-74
2021/05/18 00:40:37;;;;;;;4.43;2.33;;;;;;;;;;3617410;39;20102;-74
2021/05/18 00:43:03;;;;;;;4.80;2.53;;;;;;;;;;3617052;39;20127;-74
2021/05/18 00:45:32;;;;;;;6.35;2.25;;;;;;;;;;3615919;39;20301;-74
2021/05/18 00:47:58;;;;;;;6.65;2.30;;;;;;;;;;3617065;39;20123;-74
2021/05/18 00:50:24;;;;;;;4.80;2.10;;;;;;;;;;3616730;39;20027;-74
2021/05/18 00:52:50;;;;;;;5.32;2.65;;;;;;;;;;3617088;39;20038;-74
2021/05/18 00:55:36;;;;;;;4.18;2.20;;;;;;;;;;3616439;39;20062;-73
2021/05/18 01:00:46;;;;;;;3.50;2.20;;;;;;;;;;3617044;39;20135;-73
2021/05/18 01:03:11;;;;;;;9.23;2.70;;;;;;;;;;3616182;39;20639;-73
2021/05/18 01:08:22;;;;;;;9.32;2.78;;;;;;;;;;3616332;39;20035;-73
2021/05/18 01:10:48;;;;;;;3.15;1.85;;;;;;;;;;3616741;39;20039;-73
2021/05/18 01:13:13;;;;;;;4.20;2.25;;;;;;;;;;3616306;39;20067;-73
2021/05/18 01:15:39;;;;;;;4.28;2.45;;;;;;;;;;3616500;39;20031;-73
2021/05/18 01:18:05;;;;;;;11.77;2.50;;;;;;;;;;3616843;39;20050;-73
2021/05/18 01:20:31;;;;;;;4.50;2.40;;;;;;;;;;3606489;39;20038;-72
2021/05/18 01:22:57;;;;;;;5.47;2.60;;;;;;;;;;3616917;39;20035;-73
2021/05/18 01:25:23;;;;;;;4.45;2.15;;;;;;;;;;3616711;39;20038;-72
2021/05/18 01:27:49;;;;;;;4.90;3.03;;;;;;;;;;3616686;39;20059;-72
2021/05/18 01:30:15;;;;;;;3.97;1.88;;;;;;;;;;3615914;39;20043;-72
2021/05/18 01:32:42;;;;;;;4.53;1.90;;;;;;;;;;3616374;39;20032;-72
2021/05/18 01:35:11;;;;;;;4.13;1.80;;;;;;;;;;3616721;39;20108;-71
2021/05/18 01:37:37;;;;;;;3.78;1.40;;;;;;;;;;3615704;39;20035;-71
2021/05/18 01:42:53;;;;;;;6.63;1.88;;;;;;;;;;3616214;39;20028;-72
2021/05/18 01:45:29;;;;;;;5.05;1.90;;;;;;;;;;3615785;39;20039;-72
2021/05/18 01:47:58;;;;;;;6.18;3.75;;;;;;;;;;3615908;39;20031;-71
2021/05/18 01:50:26;;;;;;;3.92;1.67;;;;;;;;;;3616448;39;20035;-71
2021/05/18 01:52:52;;;;;;;2.95;1.38;;;;;;;;;;3617418;39;20042;-71
2021/05/18 01:55:32;;;;;;;10.82;1.70;;;;;;;;;;3615826;39;20043;-70
2021/05/18 01:57:58;;;;;;;4.40;1.58;;;;;;;;;;3615777;39;20385;-69
2021/05/18 02:00:27;;;;;;;2.97;1.40;;;;;;;;;;3616062;39;20101;-69
2021/05/18 02:02:54;;;;;;;3.90;1.52;;;;;;;;;;3615773;39;20123;-69
2021/05/18 02:05:21;;;;;;;3.75;1.70;;;;;;;;;;3616287;39;20047;-69
2021/05/18 02:07:50;;;;;;;4.72;1.83;;;;;;;;;;3606736;39;20032;-69
2021/05/18 02:10:18;;;;;;;6.45;2.03;;;;;;;;;;3616509;39;20035;-70
2021/05/18 02:12:43;;;;;;;3.67;1.40;;;;;;;;;;3615891;39;20027;-70
2021/05/18 02:18:31;;;;;;;5.07;1.60;;;;;;;;;;3616139;39;20035;-71
2021/05/18 02:26:12;;;;;;;3.83;1.92;;;;;;;;;;3615825;39;20047;-72
2021/05/18 02:28:37;;;;;;;3.70;1.63;;;;;;;;;;3617747;39;20207;-72
2021/05/18 02:31:03;;;;;;;3.60;1.65;;;;;;;;;;3614110;39;20043;-72
2021/05/18 02:33:28;;;;;;;6.20;1.85;;;;;;;;;;3617266;39;20038;-72
2021/05/18 02:35:53;;;;;;;4.50;2.03;;;;;;;;;;3608351;39;20027;-72
2021/05/18 02:38:19;;;;;;;6.60;1.80;;;;;;;;;;3617725;39;20027;-73
2021/05/18 02:40:45;;;;;;;2.60;1.10;;;;;;;;;;3599563;39;20027;-73
2021/05/18 02:43:15;;;;;;;5.20;1.60;;;;;;;;;;3617889;39;20372;-73
2021/05/18 02:50:51;;;;;;;3.42;1.60;;;;;;;;;;3606797;39;20059;-73
2021/05/18 02:53:17;;;;;;;3.17;1.65;;;;;;;;;;3617882;39;20042;-74
2021/05/18 02:58:09;;;;;;;3.33;1.48;;;;;;;;;;3617773;39;20027;-73
2021/05/18 03:00:35;;;;;;;7.40;1.90;;;;;;;;;;3608209;39;20046;-73
2021/05/18 03:03:02;;;;;;;7.15;1.70;;;;;;;;;;3617650;39;20071;-73
2021/05/18 03:05:28;;;;;;;2.92;1.40;;;;;;;;;;3617385;39;20458;-73
2021/05/18 03:07:53;;;;;;;2.60;1.40;;;;;;;;;;3616493;39;20035;-73
2021/05/18 03:10:20;;;;;;;3.67;1.67;;;;;;;;;;3616449;39;20057;-73
2021/05/18 03:12:45;;;;;;;7.75;1.40;;;;;;;;;;3608453;39;20092;-73
2021/05/18 03:15:12;;;;;;;5.68;1.70;;;;;;;;;;3617808;39;20054;-73
2021/05/18 03:17:38;;;;;;;3.78;1.70;;;;;;;;;;3616451;39;20485;-73
2021/05/18 03:20:10;;;;;;;2.97;1.13;;;;;;;;;;3617500;39;20023;-73
2021/05/18 03:22:35;;;;;;;3.30;1.40;;;;;;;;;;3617475;39;20450;-73
2021/05/18 03:25:03;;;;;;;5.13;1.30;;;;;;;;;;3617561;39;20095;-73
2021/05/18 03:27:29;;;;;;;3.05;1.40;;;;;;;;;;3616440;39;20031;-73
2021/05/18 03:29:55;;;;;;;2.75;1.30;;;;;;;;;;3617278;39;20128;-73
2021/05/18 03:35:05;;;;;;;3.22;1.20;;;;;;;;;;3617203;39;20039;-74
2021/05/18 03:40:01;;;;;;;2.47;1.30;;;;;;;;;;3617287;39;20039;-73
2021/05/18 03:42:32;;;;;;;3.45;1.70;;;;;;;;;;3617250;39;20067;-74
2021/05/18 03:45:12;;;;;;;3.70;1.27;;;;;;;;;;3616799;39;20402;-74
2021/05/18 04:04:04;;;;;;;3.78;1.52;;;;;;;;;;3618987;39;20077;-74
2021/05/18 04:17:28;;;;;;;4.25;1.30;;;;;;;;;;3622336;39;20042;-75
2021/05/18 04:20:43;;;;;;;3.83;1.73;;;;;;;;;;3619549;39;20382;-74
2021/05/18 04:52:02;;;;;;;3.33;2.05;;;;;;;;;;3616881;39;20027;-74
2021/05/18 05:00:24;;;;;;;5.18;2.35;;;;;;;;;;3584064;40;20039;-74
2021/05/18 05:03:00;;;;;;;4.43;2.38;;;;;;;;;;3605434;39;20063;-74
2021/05/18 05:15:36;;;;;;;5.32;2.35;;;;;;;;;;3618507;39;20023;-73
2021/05/18 05:18:02;;;;;;;7.28;2.28;;;;;;;;;;3618515;39;20051;-74
2021/05/18 05:20:27;;;;;;;6.43;2.67;;;;;;;;;;3619393;39;20447;-73
2021/05/18 05:22:53;;;;;;;9.68;2.65;;;;;;;;;;3616280;39;20034;-73
2021/05/18 05:25:18;;;;;;;7.15;2.90;;;;;;;;;;3616701;39;20292;-72
2021/05/18 05:27:43;;;;;;;8.95;3.25;;;;;;;;;;3616245;39;20031;-72
2021/05/18 05:30:11;;;;;;;10.13;3.22;;;;;;;;;;3615898;39;20120;-73
2021/05/18 05:32:37;;;;;;;9.80;3.35;;;;;;;;;;3606619;39;20399;-73
2021/05/18 05:35:03;;;;;;;4.63;2.58;;;;;;;;;;3618972;39;20031;-72
2021/05/18 05:37:29;;;;;;;6.57;2.70;;;;;;;;;;3617794;39;20112;-73
2021/05/18 05:39:54;;;;;;;4.28;2.35;;;;;;;;;;3615413;39;20336;-73
2021/05/18 05:42:21;;;;;;;13.38;3.17;;;;;;;;;;3618456;39;20031;-72
2021/05/18 05:44:46;;;;;;;4.80;2.42;;;;;;;;;;3615352;39;20024;-72
2021/05/18 05:47:12;;;;;;;4.88;2.47;;;;;;;;;;3605130;39;20270;-72
2021/05/18 05:49:37;;;;;;;4.18;2.75;;;;;;;;;;3615417;39;20915;-72
2021/05/18 05:52:04;;;;;;;5.43;2.55;;;;;;;;;;3614424;39;20045;-72
2021/05/18 05:54:30;;;;;;;5.22;2.55;;;;;;;;;;3607098;39;20516;-72
2021/05/18 05:56:55;;;;;;;5.40;2.55;;;;;;;;;;3613733;39;20055;-73
2021/05/18 05:59:20;;;;;;;5.70;2.85;;;;;;;;;;3616103;39;20053;-71
2021/05/18 06:01:49;;;;;;;7.55;2.85;;;;;;;;;;3607250;39;20058;-71
2021/05/18 06:04:14;;;;;;;5.68;2.72;;;;;;;;;;3608781;39;20055;-71
2021/05/18 06:06:39;;;;;;;11.77;3.08;;;;;;;;;;3615829;39;20290;-73
2021/05/18 06:09:05;;;;;;;6.30;2.40;;;;;;;;;;3615913;39;20307;-72
2021/05/18 06:11:42;;;;;;;8.25;2.80;;;;;;;;;;3616595;39;20031;-72
2021/05/18 06:14:38;;;;;;;4.95;2.58;;;;;;;;;;3617870;39;20054;-73
2021/05/18 06:49:19;;;;;;;5.40;1.25;;;;;;;;;;3620659;39;20047;-73
2021/05/18 06:51:45;;;;;;;6.53;1.35;;;;;;;;;;3617312;39;20024;-72
2021/05/18 06:54:10;;;;;;;4.15;1.20;;;;;;;;;;3606021;39;20039;-73
2021/05/18 06:56:37;;;;;;;6.85;1.50;;;;;;;;;;3614374;39;20038;-73
2021/05/18 07:01:31;;;;;;;2.63;1.25;;;;;;;;;;3616905;39;20569;-73
2021/05/18 07:04:00;;;;;;;9.18;1.55;;;;;;;;;;3606801;39;20043;-73
2021/05/18 07:09:00;;;;;;;4.15;1.45;;;;;;;;;;3617104;39;20451;-72
2021/05/18 07:11:26;;;;;;;3.80;1.50;;;;;;;;;;3616487;39;20117;-72
2021/05/18 07:13:52;;;;;;;3.38;1.70;;;;;;;;;;3615792;39;20031;-71
2021/05/18 07:16:18;;;;;;;7.63;1.58;;;;;;;;;;3616941;39;20031;-72
2021/05/18 07:18:43;;;;;;;4.05;1.73;;;;;;;;;;3607257;39;20031;-71
2021/05/18 07:21:09;;;;;;;3.75;1.55;;;;;;;;;;3616625;39;20335;-72
2021/05/18 07:23:35;;;;;;;5.30;1.35;;;;;;;;;;3616437;39;20035;-71
2021/05/18 07:26:01;;;;;;;4.50;1.88;;;;;;;;;;3618593;39;20087;-72
2021/05/18 07:28:30;;;;;;;3.30;1.40;;;;;;;;;;3618856;39;20065;-71
2021/05/18 07:30:56;;;;;;;3.50;1.50;;;;;;;;;;3621141;39;20106;-71
2021/05/18 07:33:22;;;;;;;6.00;1.77;;;;;;;;;;3616970;39;20359;-73
2021/05/18 07:35:47;;;;;;;3.10;1.27;;;;;;;;;;3616550;39;20035;-73
2021/05/18 07:38:13;;;;;;;3.25;1.40;;;;;;;;;;3616938;39;20031;-73
2021/05/18 07:40:38;;;;;;;5.18;1.30;;;;;;;;;;3615965;39;20075;-71
2021/05/18 07:43:07;;;;;;;4.00;1.67;;;;;;;;;;3619537;39;20026;-72
2021/05/18 07:45:32;;;;;;;3.50;1.65;;;;;;;;;;3617905;39;20028;-72
2021/05/18 07:48:10;;;;;;;5.43;1.65;;;;;;;;;;3616649;39;20042;-72
2021/05/18 07:50:47;;;;;;;4.47;1.63;;;;;;;;;;3617992;39;20023;-72
2021/05/18 08:06:54;;;;;;;8.07;1.45;;;;;;;;;;3618737;39;20039;-73
2021/05/18 08:09:22;;;;;;;4.88;1.95;;;;;;;;;;3616840;39;20047;-73
2021/05/18 08:11:47;;;;;;;5.85;2.88;;;;;;;;;;3618373;39;20031;-73
2021/05/18 08:14:13;;;;;;;6.03;2.10;;;;;;;;;;3616261;39;20047;-72
2021/05/18 08:17:08;;;;;;;5.80;2.05;;;;;;;;;;3618681;39;20286;-72
2021/05/18 09:42:02;;;;;;;8.32;2.80;;;;;;;;;;3620028;39;20054;-71
2021/05/18 10:36:01;;;;;;;3.10;1.27;;;;;;;;;;3618201;39;20038;-71
2021/05/18 10:38:34;;;;;;;3.60;1.65;;;;;;;;;;3615771;39;20058;-71
2021/05/18 10:41:05;;;;;;;3.80;1.42;;;;;;;;;;3615272;39;20035;-72
2021/05/18 10:43:32;;;;;;;4.03;1.48;;;;;;;;;;3615467;39;20429;-72
2021/05/18 10:48:53;;;;;;;8.55;2.00;;;;;;;;;;3615714;39;20050;-72
2021/05/18 10:51:49;;;;;;;6.95;1.70;;;;;;;;;;3615776;39;20027;-73
2021/05/18 10:54:29;;;;;;;5.13;1.67;;;;;;;;;;3605090;39;20401;-73
2021/05/18 10:56:59;;;;;;;3.57;1.50;;;;;;;;;;3611718;39;20039;-75
2021/05/18 10:59:32;;;;;;;4.45;1.88;;;;;;;;;;3617524;39;20269;-74
2021/05/18 11:02:02;;;;;;;9.43;1.70;;;;;;;;;;3617792;39;20038;-75
2021/05/18 11:04:30;;;;;;;2.55;1.05;;;;;;;;;;3608070;39;20039;-73
2021/05/18 11:06:57;;;;;;;3.45;1.50;;;;;;;;;;3617629;39;20266;-74
2021/05/18 11:09:24;;;;;;;3.40;1.15;;;;;;;;;;3608146;39;20287;-73
2021/05/18 11:12:10;;;;;;;3.30;1.50;;;;;;;;;;3619570;39;20070;-73
2021/05/18 11:14:40;;;;;;;4.80;1.33;;;;;;;;;;3616229;39;20038;-72
2021/05/18 11:17:18;;;;;;;3.63;1.35;;;;;;;;;;3617408;39;20408;-74
2021/05/18 11:19:58;;;;;;;4.50;1.35;;;;;;;;;;3619868;39;20026;-74
2021/05/18 11:25:09;;;;;;;5.95;1.40;;;;;;;;;;3608011;39;20146;-73
2021/05/18 11:27:35;;;;;;;6.70;1.42;;;;;;;;;;3617621;39;20039;-74
2021/05/18 11:30:01;;;;;;;4.07;1.40;;;;;;;;;;3599314;39;20032;-72
2021/05/18 11:32:27;;;;;;;4.95;1.75;;;;;;;;;;3606962;39;20054;-70
2021/05/18 11:34:57;;;;;;;13.57;1.60;;;;;;;;;;3617452;39;20035;-65
2021/05/18 11:37:23;;;;;;;9.02;1.30;;;;;;;;;;3607536;39;20023;-63
2021/05/18 11:39:49;;;;;;;3.17;1.20;;;;;;;;;;3606729;39;20358;-63
2021/05/18 11:42:28;;;;;;;7.05;1.45;;;;;;;;;;3617722;39;20079;-63
2021/05/18 11:45:04;;;;;;;2.35;1.05;;;;;;;;;;3616669;39;20370;-65
2021/05/18 11:47:30;;;;;;;3.45;0.90;;;;;;;;;;3617800;39;20027;-64
2021/05/18 11:49:55;;;;;;;3.08;1.00;;;;;;;;;;3616334;39;20034;-65
2021/05/18 11:52:21;;;;;;;3.92;1.13;;;;;;;;;;3617513;39;20032;-66
2021/05/18 11:54:46;;;;;;;7.45;1.52;;;;;;;;;;3617471;39;20103;-65
2021/05/18 11:57:11;;;;;;;5.72;1.40;;;;;;;;;;3617345;39;20278;-65
2021/05/18 11:59:37;;;;;;;3.58;1.25;;;;;;;;;;3615972;39;20068;-65
2021/05/18 12:02:05;;;;;;;3.17;1.27;;;;;;;;;;3607961;39;20055;-67
2021/05/18 12:04:40;;;;;;;2.38;1.02;;;;;;;;;;3617304;39;20127;-68
2021/05/18 12:07:08;;;;;;;7.38;1.27;;;;;;;;;;3616490;39;20326;-69
2021/05/18 12:09:39;;;;;;;2.10;0.95;;;;;;;;;;3617131;39;20027;-70
2021/05/18 12:12:05;;;;;;;;;;;;;;;;;;3618239;39;20043;-71
2021/05/18 12:14:31;;;;;;;2.33;1.13;;;;;;;;;;3607950;39;19942;-71
2021/05/18 12:16:58;;;;;;;3.05;1.05;;;;;;;;;;3607105;39;20051;-72
2021/05/18 12:19:24;;;;;;;1.60;0.77;;;;;;;;;;3608032;39;20378;-74
2021/05/18 12:21:55;;;;;;;4.40;1.02;;;;;;;;;;3617466;39;20115;-73
2021/05/18 12:24:23;;;;;;;4.93;0.70;;;;;;;;;;3606515;39;20051;-74
2021/05/18 12:27:05;;;;;;;1.55;0.80;;;;;;;;;;3607371;39;20033;-76
2021/05/18 12:29:37;;;;;;;3.92;1.30;;;;;;;;;;3617588;39;20035;-76
2021/05/18 12:32:15;;;;;;;2.33;0.80;;;;;;;;;;3616818;39;20035;-80
2021/05/18 12:34:40;;;;;;;4.00;0.80;;;;;;;;;;3616257;39;20497;-78
2021/05/18 12:37:06;;;;;;;6.47;1.08;;;;;;;;;;3617418;39;20781;-81
2021/05/18 12:39:32;;;;;;;2.25;0.95;;;;;;;;;;3604482;39;20279;-81
2021/05/18 12:42:01;;;;;;;3.53;0.90;;;;;;;;;;3615825;39;20047;-80
2021/05/18 12:44:33;;;;;;;3.55;0.90;;;;;;;;;;3615651;39;20039;-78
2021/05/18 12:47:06;;;;;;;11.38;1.48;;;;;;;;;;3615795;39;20046;-84
2021/05/18 12:49:37;;;;;;;1.58;0.82;;;;;;;;;;3607629;39;20366;-80
2021/05/18 12:52:14;;;;;;;1.23;0.60;;;;;;;;;;3615990;39;20097;-81
2021/05/18 12:54:49;;;;;;;2.45;0.80;;;;;;;;;;3606272;39;20054;-75
2021/05/18 12:57:17;;;;;;;1.85;0.85;;;;;;;;;;3617242;39;20042;-83
2021/05/18 13:00:04;;;;;;;3.10;1.02;;;;;;;;;;3617045;39;20039;-83
2021/05/18 13:02:38;;;;;;;2.10;0.70;;;;;;;;;;3615937;39;20023;-78
2021/05/18 13:05:06;;;;;;;3.45;1.10;;;;;;;;;;3616665;39;20047;-82
2021/05/18 13:07:32;;;;;;;2.15;0.82;;;;;;;;;;3616649;39;20027;-83
2021/05/18 13:10:08;;;;;;;2.60;1.08;;;;;;;;;;3617005;39;20046;-82
2021/05/18 13:12:34;;;;;;;2.60;0.88;;;;;;;;;;3616293;39;20030;-83
2021/05/18 13:15:02;;;;;;;2.35;0.88;;;;;;;;;;3617615;39;20031;-83
2021/05/18 13:17:29;;;;;;;1.30;0.68;;;;;;;;;;3617164;39;20087;-83
2021/05/18 13:20:08;;;;;;;1.75;0.68;;;;;;;;;;3616498;39;20035;-79
2021/05/18 13:22:36;;;;;;;2.22;0.68;;;;;;;;;;3606478;39;20043;-79
2021/05/18 13:27:56;;;;;;;2.45;0.70;;;;;;;;;;3616684;39;20035;-79
2021/05/18 13:30:25;;;;;;;1.55;0.70;;;;;;;;;;3615295;39;20091;-79
2021/05/18 13:32:51;;;;;;;2.17;0.70;;;;;;;;;;3616325;39;20020;-79
2021/05/18 13:35:18;;;;;;;1.17;0.55;;;;;;;;;;3619130;39;20043;-78
2021/05/18 13:37:44;;;;;;;1.95;0.57;;;;;;;;;;3621738;39;20116;-78
2021/05/18 13:40:13;;;;;;;1.45;0.40;;;;;;;;;;3618039;39;20047;-76
2021/05/18 13:42:40;;;;;;;1.60;0.70;;;;;;;;;;3609664;39;20046;-78
2021/05/18 13:45:06;;;;;;;1.00;0.43;;;;;;;;;;3619115;39;20023;-77
2021/05/18 13:47:32;;;;;;;1.92;0.80;;;;;;;;;;3616165;39;20124;-76
2021/05/18 13:49:57;;;;;;;2.40;0.50;;;;;;;;;;3615508;39;20019;-78
2021/05/18 13:52:23;;;;;;;1.02;0.52;;;;;;;;;;3619812;39;20115;-77
2021/05/18 13:54:50;;;;;;;1.15;0.60;;;;;;;;;;3615903;39;20075;-76
2021/05/18 13:57:15;;;;;;;2.13;0.68;;;;;;;;;;3613287;39;20047;-80
2021/05/18 13:59:41;;;;;;;1.98;0.75;;;;;;;;;;3613793;39;20739;-78
2021/05/18 14:02:06;;;;;;;2.92;0.60;;;;;;;;;;3615864;39;20036;-77
2021/05/18 14:04:32;;;;;;;1.20;0.63;;;;;;;;;;3615343;39;20291;-78
2021/05/18 14:07:40;;;;;;;2.28;0.90;;;;;;;;;;3616366;39;20259;-69
2021/05/18 14:10:06;;;;;;;0.80;0.50;;;;;;;;;;3616460;39;20028;-75
2021/05/18 14:12:32;;;;;;;2.35;0.90;;;;;;;;;;3617299;39;20023;-68
2021/05/18 14:14:57;;;;;;;3.40;0.70;;;;;;;;;;3616161;39;20054;-70
2021/05/18 14:17:23;;;;;;;1.33;0.70;;;;;;;;;;3616356;39;20038;-70
2021/05/18 14:19:48;;;;;;;2.47;0.65;;;;;;;;;;3616655;39;20064;-72
2021/05/18 14:22:13;;;;;;;1.20;0.55;;;;;;;;;;3616432;39;20031;-71
2021/05/18 14:24:46;;;;;;;2.95;1.20;;;;;;;;;;3617196;39;20376;-71
2021/05/18 14:27:18;;;;;;;1.95;0.70;;;;;;;;;;3617766;39;20031;-72
2021/05/18 14:29:43;;;;;;;2.63;1.20;;;;;;;;;;3617772;39;20363;-72
2021/05/18 14:32:09;;;;;;;0.88;0.52;;;;;;;;;;3617334;39;20059;-73
2021/05/18 14:34:34;;;;;;;0.90;0.50;;;;;;;;;;3616916;39;20023;-72
2021/05/18 14:37:00;;;;;;;1.05;0.60;;;;;;;;;;3617345;39;20064;-72
2021/05/18 14:39:36;;;;;;;1.00;0.60;;;;;;;;;;3617642;39;20034;-73
2021/05/18 14:44:46;;;;;;;0.95;0.43;;;;;;;;;;3619593;39;20027;-72
2021/05/18 14:47:21;;;;;;;1.58;0.55;;;;;;;;;;3621090;39;20031;-71
2021/05/18 14:55:18;;;;;;;0.50;0.40;;;;;;;;;;3619016;39;20047;-70
2021/05/18 14:57:44;;;;;;;1.42;0.50;;;;;;;;;;3618562;39;20049;-71
2021/05/18 15:00:10;;;;;;;1.02;0.43;;;;;;;;;;3619081;39;20027;-70
2021/05/18 15:02:36;;;;;;;2.17;0.60;;;;;;;;;;3617674;39;20142;-70
2021/05/18 15:05:02;;;;;;;0.85;0.50;;;;;;;;;;3617343;39;20056;-70
2021/05/18 15:07:27;;;;;;;0.80;0.50;;;;;;;;;;3617369;39;20071;-69
2021/05/18 15:09:53;;;;;;;1.02;0.50;;;;;;;;;;3605416;39;20329;-71
2021/05/18 15:12:18;;;;;;;1.45;0.50;;;;;;;;;;3615542;39;20043;-71
2021/05/18 15:14:44;;;;;;;2.67;0.60;;;;;;;;;;3608091;39;20368;-72
2021/05/18 15:17:09;;;;;;;2.88;0.65;;;;;;;;;;3617030;39;20289;-72
2021/05/18 15:19:35;;;;;;;1.83;0.70;;;;;;;;;;3617946;39;20062;-72
2021/05/18 15:22:00;;;;;;;2.83;0.77;;;;;;;;;;3617677;39;20050;-72
2021/05/18 15:24:28;;;;;;;1.70;0.82;;;;;;;;;;3617575;39;20039;-73
2021/05/18 15:26:53;;;;;;;0.80;0.40;;;;;;;;;;3617065;39;20039;-73
2021/05/18 15:29:21;;;;;;;0.65;0.40;;;;;;;;;;3617741;39;20043;-73
2021/05/18 15:31:46;;;;;;;0.45;0.30;;;;;;;;;;3616605;39;20031;-73
2021/05/18 15:34:12;;;;;;;1.48;0.50;;;;;;;;;;3617177;39;20046;-73
2021/05/18 15:36:38;;;;;;;1.75;0.50;;;;;;;;;;3607501;39;20259;-73
2021/05/18 15:39:04;;;;;;;1.08;0.40;;;;;;;;;;3614796;39;20063;-73
2021/05/18 15:41:29;;;;;;;2.25;0.68;;;;;;;;;;3610550;39;20035;-73
2021/05/18 15:43:55;;;;;;;1.52;0.70;;;;;;;;;;3610491;39;20039;-72
2021/05/18 15:46:20;;;;;;;0.77;0.45;;;;;;;;;;3610471;39;20039;-72
2021/05/18 15:48:45;;;;;;;1.40;0.50;;;;;;;;;;3610852;39;20031;-70
2021/05/18 15:51:11;;;;;;;0.93;0.52;;;;;;;;;;3617222;39;20031;-71
2021/05/18 15:53:36;;;;;;;0.70;0.40;;;;;;;;;;3616716;39;20308;-71
2021/05/18 15:56:07;;;;;;;1.85;0.50;;;;;;;;;;3597895;39;20824;-71
2021/05/18 15:58:32;;;;;;;;;;;;;;;;;;3616814;39;20032;-70
2021/05/18 16:00:58;;;;;;;0.65;0.40;;;;;;;;;;3598998;39;20015;-71
2021/05/18 16:03:24;;;;;;;0.80;0.50;;;;;;;;;;3615362;39;20043;-71
2021/05/18 16:05:50;;;;;;;1.52;0.50;;;;;;;;;;3606102;39;20054;-72
2021/05/18 16:10:59;;;;;;;1.05;0.40;;;;;;;;;;3616232;39;20902;-72
2021/05/18 16:13:24;;;;;;;1.40;0.60;;;;;;;;;;3616980;39;20035;-72
2021/05/18 16:15:50;;;;;;;3.08;0.60;;;;;;;;;;3617539;39;20274;-71
2021/05/18 16:18:15;;;;;;;1.33;0.70;;;;;;;;;;3617396;39;20392;-71
2021/05/18 16:20:41;;;;;;;2.20;0.60;;;;;;;;;;3616616;39;20035;-72
2021/05/18 16:23:08;;;;;;;1.67;0.80;;;;;;;;;;3617149;39;20043;-72
2021/05/18 16:25:33;;;;;;;6.13;0.70;;;;;;;;;;3616598;39;20047;-72
2021/05/18 16:27:59;;;;;;;1.13;0.52;;;;;;;;;;3617050;39;20156;-72
2021/05/18 16:30:24;;;;;;;1.08;0.50;;;;;;;;;;3616574;39;20035;-72
2021/05/18 16:32:50;;;;;;;1.38;0.70;;;;;;;;;;3617416;39;20259;-74
2021/05/18 16:35:15;;;;;;;1.67;0.70;;;;;;;;;;3617530;39;20043;-73
2021/05/18 16:37:41;;;;;;;1.88;0.70;;;;;;;;;;3616497;39;20032;-73
2021/05/18 16:40:07;;;;;;;4.13;1.00;;;;;;;;;;3617241;39;20047;-73
2021/05/18 16:42:35;;;;;;;1.50;0.60;;;;;;;;;;3607805;39;20077;-73
2021/05/18 16:45:02;;;;;;;1.15;0.60;;;;;;;;;;3616746;39;20366;-73
2021/05/18 16:47:27;;;;;;;1.50;0.70;;;;;;;;;;3615956;39;20045;-72
2021/05/18 16:49:53;;;;;;;1.73;0.98;;;;;;;;;;3617537;39;20028;-72
2021/05/18 16:52:18;;;;;;;1.40;0.70;;;;;;;;;;3617282;39;20046;-71
2021/05/18 16:54:44;;;;;;;1.17;0.60;;;;;;;;;;3617211;39;20298;-72
2021/05/18 16:57:10;;;;;;;3.67;0.60;;;;;;;;;;3616108;39;20047;-72
2021/05/18 16:59:36;;;;;;;0.60;0.40;;;;;;;;;;3617716;39;20057;-70
2021/05/18 17:02:01;;;;;;;2.00;0.70;;;;;;;;;;3618058;39;20393;-72
2021/05/18 17:04:27;;;;;;;2.92;0.60;;;;;;;;;;3616335;39;20065;-70
2021/05/18 17:06:54;;;;;;;2.13;0.70;;;;;;;;;;3616267;39;20075;-70
2021/05/18 17:09:20;;;;;;;1.55;0.73;;;;;;;;;;3617012;39;20124;-70
2021/05/18 17:11:45;;;;;;;1.83;0.60;;;;;;;;;;3616318;39;20047;-70
2021/05/18 17:14:12;;;;;;;1.13;0.60;;;;;;;;;;3615542;39;20059;-70
2021/05/18 17:16:39;;;;;;;0.88;0.50;;;;;;;;;;3616525;39;20035;-70
2021/05/18 17:19:04;;;;;;;2.00;0.70;;;;;;;;;;3616692;39;20944;-69
2021/05/18 17:21:31;;;;;;;1.27;0.60;;;;;;;;;;3616432;39;20031;-71
2021/05/18 17:23:56;;;;;;;1.65;0.88;;;;;;;;;;3609063;39;20039;-70
2021/05/18 17:26:22;;;;;;;2.38;0.80;;;;;;;;;;3607201;39;20039;-68
2021/05/18 17:28:48;;;;;;;0.90;0.50;;;;;;;;;;3613859;39;20043;-71
2021/05/18 17:31:15;;;;;;;1.95;0.52;;;;;;;;;;3616170;39;20057;-70
2021/05/18 17:33:41;;;;;;;1.67;0.60;;;;;;;;;;3607375;39;20139;-70
2021/05/18 17:36:08;;;;;;;1.35;0.65;;;;;;;;;;3607201;39;20116;-70
2021/05/18 17:38:34;;;;;;;1.20;0.70;;;;;;;;;;3617877;39;20027;-69
2021/05/18 17:41:03;;;;;;;2.60;0.80;;;;;;;;;;3616038;39;20059;-70
2021/05/18 17:43:30;;;;;;;2.35;0.60;;;;;;;;;;3605161;39;20054;-71
2021/05/18 17:45:58;;;;;;;3.20;0.90;;;;;;;;;;3606603;39;20035;-70
2021/05/18 17:48:24;;;;;;;1.50;0.80;;;;;;;;;;3616479;39;20035;-70
2021/05/18 17:50:49;;;;;;;2.50;1.00;;;;;;;;;;3607336;39;20034;-71
2021/05/18 17:53:15;;;;;;;1.58;0.70;;;;;;;;;;3616888;39;20035;-70
2021/05/18 17:55:41;;;;;;;0.95;0.60;;;;;;;;;;3608181;39;20289;-69
2021/05/18 17:58:06;;;;;;;2.65;0.85;;;;;;;;;;3617666;39;20123;-69
2021/05/18 18:00:32;;;;;;;2.40;1.00;;;;;;;;;;3608737;39;20053;-69
2021/05/18 18:02:57;;;;;;;2.10;1.20;;;;;;;;;;3618684;39;20074;-68
2021/05/18 18:05:23;;;;;;;1.98;0.77;;;;;;;;;;3618744;39;20074;-70
2021/05/18 18:07:48;;;;;;;2.30;0.75;;;;;;;;;;3611661;39;20143;-68
2021/05/18 18:10:15;;;;;;;1.92;0.80;;;;;;;;;;3619604;39;20093;-69
2021/05/18 18:12:40;;;;;;;2.45;1.02;;;;;;;;;;3601929;39;20035;-70
2021/05/18 18:15:06;;;;;;;3.28;1.23;;;;;;;;;;3619848;39;20033;-69
2021/05/18 18:17:32;;;;;;;1.73;0.90;;;;;;;;;;3609413;39;20027;-68
2021/05/18 18:19:58;;;;;;;2.20;1.00;;;;;;;;;;3619524;39;20515;-68
2021/05/18 18:22:25;;;;;;;2.28;1.20;;;;;;;;;;3618284;39;20455;-68
2021/05/18 18:24:52;;;;;;;2.78;1.15;;;;;;;;;;3608930;39;20038;-69
2021/05/18 18:27:17;;;;;;;2.92;1.50;;;;;;;;;;3618486;39;20031;-68
2021/05/18 18:29:43;;;;;;;3.83;2.30;;;;;;;;;;3620083;39;20377;-69
2021/05/18 18:32:09;;;;;;;2.33;1.00;;;;;;;;;;3619463;39;20032;-69
2021/05/18 18:34:36;;;;;;;2.55;0.90;;;;;;;;;;3624051;39;20038;-69
2021/05/18 18:37:03;;;;;;;2.28;1.00;;;;;;;;;;3618568;39;20096;-68
2021/05/18 18:39:29;;;;;;;2.95;1.42;;;;;;;;;;3619207;39;20417;-69
2021/05/18 18:41:54;;;;;;;3.33;0.90;;;;;;;;;;3605311;39;20028;-68
2021/05/18 18:44:20;;;;;;;3.65;1.23;;;;;;;;;;3615940;39;20051;-68
2021/05/18 18:46:45;;;;;;;2.58;1.08;;;;;;;;;;3618066;39;20027;-68
2021/05/18 18:49:14;;;;;;;3.63;1.10;;;;;;;;;;3607855;39;20034;-69
2021/05/18 18:51:39;;;;;;;2.45;1.10;;;;;;;;;;3607852;39;20152;-69
2021/05/18 18:54:05;;;;;;;2.35;1.00;;;;;;;;;;3617782;39;20067;-69
2021/05/18 18:56:31;;;;;;;2.45;0.95;;;;;;;;;;3615875;39;20054;-68
2021/05/18 18:58:57;;;;;;;3.35;1.30;;;;;;;;;;3617259;39;20043;-68
2021/05/18 19:01:29;;;;;;;2.63;1.20;;;;;;;;;;3617480;39;20312;-68
2021/05/18 19:03:59;;;;;;;2.95;1.20;;;;;;;;;;3615507;39;20123;-69
2021/05/18 19:12:38;;;;;;;5.05;1.30;;;;;;;;;;3604548;39;20034;-69
2021/05/18 19:14:35;;;;;;;5.80;1.40;;;;;;;;;;3615300;39;20035;-69
2021/05/18 19:17:01;;;;;;;3.05;1.50;;;;;;;;;;3616544;39;20031;-69
2021/05/18 19:19:26;;;;;;;4.05;1.60;;;;;;;;;;3616784;39;20039;-69
2021/05/18 19:21:52;;;;;;;3.00;1.40;;;;;;;;;;3618228;39;20051;-69
2021/05/18 19:24:18;;;;;;;2.35;1.23;;;;;;;;;;3608326;39;20035;-69
2021/05/18 19:26:44;;;;;;;2.70;1.48;;;;;;;;;;3617701;39;20042;-69
2021/05/18 19:29:10;;;;;;;2.28;1.35;;;;;;;;;;3616991;39;20046;-68
2021/05/18 19:31:36;;;;;;;3.38;1.70;;;;;;;;;;3617560;39;20042;-69
2021/05/18 19:34:03;;;;;;;3.85;1.70;;;;;;;;;;3617711;39;20051;-69
2021/05/18 19:36:39;;;;;;;3.83;1.88;;;;;;;;;;3617091;39;20054;-68
2021/05/18 19:51:56;;;;;;;3.60;1.40;;;;;;;;;;3621859;39;20031;-68
2021/05/18 19:54:25;;;;;;;3.20;1.60;;;;;;;;;;3616215;39;20039;-68
2021/05/18 20:17:57;;;;;;;3.75;2.28;;;;;;;;;;3617373;39;20039;-68
2021/05/18 20:20:24;;;;;;;4.28;1.80;;;;;;;;;;3615925;39;20118;-68
2021/05/18 20:22:50;;;;;;;5.95;1.85;;;;;;;;;;3617925;39;20039;-68
2021/05/18 20:25:15;;;;;;;3.65;2.03;;;;;;;;;;3617994;39;20139;-68
2021/05/18 20:27:41;;;;;;;4.63;2.10;;;;;;;;;;3618906;39;20071;-68
2021/05/18 20:30:07;;;;;;;6.50;2.80;;;;;;;;;;3617750;39;20139;-68
2021/05/18 20:32:33;;;;;;;3.78;2.40;;;;;;;;;;3608982;39;20094;-68
2021/05/18 20:40:11;;;;;;;8.00;3.10;;;;;;;;;;3617849;39;20024;-68